createdAt,value
2023-01-21T00:01:10.597Z,31.33
2023-01-21T00:03:37.789Z,33.42
2023-01-21T00:06:05.372Z,32.30
2023-01-21T00:08:32.143Z,31.73
2023-01-21T00:11:06.445Z,29.85
2023-01-21T00:13:35.430Z,31.40
2023-01-21T00:16:03.927Z,30.40
2023-01-21T00:18:30.900Z,30.60
2023-01-21T00:20:58.161Z,30.02
2023-01-21T00:23:25.428Z,31.90
2023-01-21T00:26:03.238Z,32.25
2023-01-21T00:28:31.557Z,32.85
2023-01-21T00:30:59.651Z,33.80
2023-01-21T00:33:27.550Z,34.47
2023-01-21T00:36:01.643Z,34.80
2023-01-21T00:38:29.732Z,32.35
2023-01-21T00:41:01.420Z,32.95
2023-01-21T00:43:29.017Z,31.60
2023-01-21T00:45:55.898Z,32.30
2023-01-21T00:48:22.840Z,31.73
2023-01-21T00:50:51.486Z,30.77
2023-01-21T00:53:18.593Z,29.77
2023-01-21T00:55:45.390Z,30.48
2023-01-21T00:58:12.394Z,28.17
2023-01-21T01:00:39.377Z,27.73
2023-01-21T01:03:06.389Z,27.35
2023-01-21T01:05:33.364Z,27.45
2023-01-21T01:08:00.275Z,28.50
2023-01-21T01:10:27.258Z,27.00
2023-01-21T01:12:54.058Z,27.67
2023-01-21T01:15:20.906Z,27.25
2023-01-21T01:17:48.034Z,27.88
2023-01-21T01:20:15.399Z,26.60
2023-01-21T01:22:42.667Z,27.60
2023-01-21T01:25:09.587Z,27.25
2023-01-21T01:27:36.338Z,27.60
2023-01-21T01:30:05.599Z,28.45
2023-01-21T01:32:32.395Z,28.98
2023-01-21T01:34:59.175Z,26.88
2023-01-21T01:37:25.919Z,29.40
2023-01-21T01:39:52.693Z,28.88
2023-01-21T01:42:19.485Z,27.73
2023-01-21T01:45:00.147Z,26.77
2023-01-21T01:48:00.002Z,27.92
2023-01-21T01:50:32.231Z,27.83
2023-01-21T01:53:01.240Z,28.45
2023-01-21T01:55:35.556Z,28.70
2023-01-21T01:58:05.486Z,28.58
2023-01-21T02:00:32.517Z,27.20
2023-01-21T02:03:17.993Z,29.92
2023-01-21T02:05:48.599Z,27.27
2023-01-21T02:08:16.118Z,27.77
2023-01-21T02:10:43.037Z,29.42
2023-01-21T02:13:10.376Z,27.80
2023-01-21T02:16:15.554Z,28.55
2023-01-21T02:19:09.174Z,29.05
2023-01-21T02:21:54.111Z,32.00
2023-01-21T02:24:54.095Z,30.45
2023-01-21T02:27:44.617Z,27.98
2023-01-21T02:30:37.476Z,28.08
2023-01-21T02:33:52.898Z,30.13
2023-01-21T02:36:31.413Z,30.23
2023-01-21T02:39:16.172Z,29.20
2023-01-21T02:42:04.582Z,28.42
2023-01-21T02:44:54.426Z,27.20
2023-01-21T02:47:40.357Z,29.88
2023-01-21T02:50:23.208Z,27.33
2023-01-21T02:53:01.077Z,29.20
2023-01-21T02:55:30.926Z,28.02
2023-01-21T02:58:07.342Z,25.73
2023-01-21T03:01:11.246Z,27.00
2023-01-21T03:04:02.661Z,25.55
2023-01-21T03:06:46.234Z,25.27
2023-01-21T03:09:31.680Z,26.38
2023-01-21T03:12:19.812Z,26.10
2023-01-21T03:15:35.751Z,25.23
2023-01-21T03:18:29.230Z,24.83
2023-01-21T03:21:03.875Z,24.98
2023-01-21T03:23:35.936Z,25.30
2023-01-21T03:26:04.024Z,26.45
2023-01-21T03:28:33.330Z,25.95
2023-01-21T03:31:27.619Z,25.80
2023-01-21T03:34:00.175Z,26.13
2023-01-21T03:36:46.956Z,27.42
2023-01-21T03:39:32.751Z,27.25
2023-01-21T03:42:00.324Z,25.90
2023-01-21T03:44:27.725Z,29.02
2023-01-21T03:47:19.681Z,29.25
2023-01-21T03:49:54.198Z,29.35
2023-01-21T03:52:24.143Z,30.33
2023-01-21T03:54:51.152Z,32.22
2023-01-21T03:57:18.086Z,29.48
2023-01-21T03:59:45.839Z,28.85
2023-01-21T04:02:12.883Z,27.73
2023-01-21T04:04:40.080Z,27.10
2023-01-21T04:07:07.090Z,26.13
2023-01-21T04:09:34.461Z,28.23
2023-01-21T04:12:01.297Z,27.17
2023-01-21T04:14:28.465Z,27.15
2023-01-21T04:16:55.763Z,24.55
2023-01-21T04:19:22.564Z,26.10
2023-01-21T04:21:49.424Z,28.08
2023-01-21T04:24:16.187Z,25.67
2023-01-21T04:26:43.020Z,24.92
2023-01-21T04:29:09.845Z,26.60
2023-01-21T04:31:36.820Z,26.40
2023-01-21T04:34:03.712Z,26.60
2023-01-21T04:36:30.961Z,27.20
2023-01-21T04:38:57.895Z,27.02
2023-01-21T04:41:25.598Z,29.83
2023-01-21T04:43:52.412Z,25.50
2023-01-21T04:46:19.402Z,24.50
2023-01-21T04:48:46.235Z,27.65
2023-01-21T04:51:13.133Z,26.02
2023-01-21T04:53:39.940Z,28.33
2023-01-21T04:56:07.473Z,27.70
2023-01-21T04:58:34.596Z,26.80
2023-01-21T05:01:01.666Z,29.60
2023-01-21T05:03:28.545Z,27.08
2023-01-21T05:05:55.365Z,26.98
2023-01-21T05:08:22.134Z,26.73
2023-01-21T05:10:48.972Z,27.42
2023-01-21T05:13:15.738Z,28.65
2023-01-21T05:15:42.596Z,26.08
2023-01-21T05:18:09.573Z,26.70
2023-01-21T05:20:36.411Z,27.88
2023-01-21T05:23:03.351Z,27.08
2023-01-21T05:25:30.228Z,24.45
2023-01-21T05:27:57.043Z,25.02
2023-01-21T05:30:23.842Z,24.70
2023-01-21T05:32:54.724Z,23.13
2023-01-21T05:35:23.110Z,23.10
2023-01-21T05:37:50.326Z,22.33
2023-01-21T05:40:18.559Z,24.48
2023-01-21T05:42:46.492Z,23.08
2023-01-21T05:45:13.982Z,22.05
2023-01-21T05:47:41.639Z,22.83
2023-01-21T05:50:09.571Z,20.58
2023-01-21T05:52:36.421Z,21.80
2023-01-21T05:55:03.801Z,22.17
2023-01-21T05:57:31.769Z,20.58
2023-01-21T05:59:58.826Z,22.58
2023-01-21T06:02:26.125Z,23.13
2023-01-21T06:04:53.058Z,22.83
2023-01-21T06:07:19.840Z,23.15
2023-01-21T06:09:47.130Z,23.52
2023-01-21T06:12:13.991Z,24.63
2023-01-21T06:14:40.716Z,24.17
2023-01-21T06:17:07.523Z,24.38
2023-01-21T06:19:34.334Z,24.38
2023-01-21T06:22:01.098Z,22.02
2023-01-21T06:24:28.165Z,22.95
2023-01-21T06:26:55.225Z,22.02
2023-01-21T06:29:22.040Z,23.10
2023-01-21T06:31:49.148Z,23.95
2023-01-21T06:34:16.004Z,24.52
2023-01-21T06:36:42.896Z,26.35
2023-01-21T06:39:10.958Z,24.02
2023-01-21T06:41:37.821Z,24.30
2023-01-21T06:44:05.396Z,23.55
2023-01-21T06:46:32.748Z,24.63
2023-01-21T06:48:59.761Z,22.23
2023-01-21T06:51:26.852Z,23.88
2023-01-21T06:53:53.956Z,24.75
2023-01-21T06:56:22.201Z,24.95
2023-01-21T06:58:49.013Z,28.73
2023-01-21T07:01:15.815Z,28.08
2023-01-21T07:03:42.684Z,28.98
2023-01-21T07:06:09.484Z,31.55
2023-01-21T07:08:36.227Z,28.50
2023-01-21T07:11:03.074Z,26.85
2023-01-21T07:13:29.934Z,28.42
2023-01-21T07:16:01.091Z,28.58
2023-01-21T07:18:28.450Z,27.38
2023-01-21T07:20:55.693Z,28.75
2023-01-21T07:23:22.576Z,26.75
2023-01-21T07:25:49.461Z,29.02
2023-01-21T07:28:16.339Z,29.05
2023-01-21T07:30:43.220Z,31.35
2023-01-21T07:33:10.733Z,31.08
2023-01-21T07:35:37.589Z,30.10
2023-01-21T07:38:04.893Z,26.67
2023-01-21T07:40:32.115Z,27.00
2023-01-21T07:42:58.883Z,27.35
2023-01-21T07:45:26.042Z,27.02
2023-01-21T07:47:53.197Z,31.58
2023-01-21T07:50:20.227Z,29.80
2023-01-21T07:52:47.092Z,29.30
2023-01-21T07:55:13.999Z,28.23
2023-01-21T07:57:40.828Z,28.40
2023-01-21T08:00:08.310Z,29.88
2023-01-21T08:02:38.742Z,30.05
2023-01-21T08:05:06.795Z,29.52
2023-01-21T08:07:33.824Z,27.05
2023-01-21T08:10:00.708Z,25.10
2023-01-21T08:12:27.619Z,26.70
2023-01-21T08:14:54.596Z,26.13
2023-01-21T08:17:21.832Z,23.15
2023-01-21T08:19:48.714Z,25.40
2023-01-21T08:22:16.061Z,23.65
2023-01-21T08:24:42.925Z,24.10
2023-01-21T08:27:10.021Z,27.33
2023-01-21T08:29:37.805Z,23.92
2023-01-21T08:32:04.702Z,22.23
2023-01-21T08:34:31.562Z,22.92
2023-01-21T08:36:58.404Z,22.73
2023-01-21T08:39:25.204Z,22.45
2023-01-21T08:41:51.941Z,21.85
2023-01-21T08:44:18.807Z,22.65
2023-01-21T08:46:45.635Z,19.63
2023-01-21T08:49:12.476Z,21.40
2023-01-21T08:51:39.626Z,21.15
2023-01-21T08:54:07.153Z,21.50
2023-01-21T08:56:34.391Z,20.88
2023-01-21T08:59:02.869Z,20.67
2023-01-21T09:01:29.676Z,21.80
2023-01-21T09:03:58.864Z,20.58
2023-01-21T09:06:28.008Z,22.23
2023-01-21T09:08:55.338Z,21.55
2023-01-21T09:11:22.862Z,21.88
2023-01-21T09:13:49.738Z,21.50
2023-01-21T09:16:22.079Z,22.65
2023-01-21T09:18:49.325Z,23.75
2023-01-21T09:21:16.735Z,24.50
2023-01-21T09:23:44.332Z,27.13
2023-01-21T09:26:19.693Z,25.88
2023-01-21T09:28:52.790Z,26.48
2023-01-21T09:31:24.413Z,25.95
2023-01-21T09:33:57.801Z,26.00
2023-01-21T09:36:50.679Z,25.52
2023-01-21T09:39:26.755Z,24.15
2023-01-21T09:41:56.269Z,21.92
2023-01-21T09:44:31.691Z,25.63
2023-01-21T09:47:23.499Z,23.58
2023-01-21T09:50:03.122Z,23.95
2023-01-21T09:52:32.435Z,21.90
2023-01-21T09:55:01.653Z,20.73
2023-01-21T09:57:37.514Z,20.52
2023-01-21T10:00:21.264Z,20.88
2023-01-21T10:03:06.991Z,26.08
2023-01-21T10:05:56.901Z,23.17
2023-01-21T10:08:42.200Z,21.73
2023-01-21T10:11:36.440Z,20.25
2023-01-21T10:14:06.027Z,22.02
2023-01-21T10:17:01.984Z,21.20
2023-01-21T10:19:39.076Z,19.35
2023-01-21T10:22:12.583Z,20.40
2023-01-21T10:24:46.229Z,21.42
2023-01-21T10:27:19.604Z,21.38
2023-01-21T10:29:54.621Z,19.25
2023-01-21T10:32:25.557Z,18.52
2023-01-21T10:34:57.718Z,19.98
2023-01-21T10:37:45.390Z,19.98
2023-01-21T10:40:17.319Z,20.58
2023-01-21T10:42:53.219Z,18.30
2023-01-21T10:45:31.297Z,19.25
2023-01-21T10:48:24.132Z,19.50
2023-01-21T10:51:04.615Z,19.10
2023-01-21T10:53:34.414Z,19.35
2023-01-21T10:56:19.950Z,17.88
2023-01-21T10:58:49.237Z,18.77
2023-01-21T11:01:28.176Z,19.65
2023-01-21T11:03:59.607Z,18.75
2023-01-21T11:06:28.893Z,19.85
2023-01-21T11:09:00.325Z,19.95
2023-01-21T11:11:30.778Z,19.92
2023-01-21T11:13:57.757Z,21.13
2023-01-21T11:16:35.411Z,22.25
2023-01-21T11:19:05.096Z,21.02
2023-01-21T11:21:32.153Z,21.77
2023-01-21T11:24:01.330Z,21.30
2023-01-21T11:26:32.246Z,19.85
2023-01-21T11:29:13.383Z,19.23
2023-01-21T11:31:42.203Z,21.13
2023-01-21T11:34:23.793Z,20.35
2023-01-21T11:37:16.325Z,21.27
2023-01-21T11:40:00.853Z,20.67
2023-01-21T11:42:27.799Z,20.13
2023-01-21T11:45:24.313Z,21.77
2023-01-21T11:47:52.228Z,19.10
2023-01-21T11:50:28.124Z,22.60
2023-01-21T11:53:06.908Z,18.75
2023-01-21T11:55:45.380Z,17.30
2023-01-21T11:58:19.508Z,19.85
2023-01-21T12:00:49.325Z,18.17
2023-01-21T12:03:19.581Z,18.50
2023-01-21T12:05:52.270Z,17.08
2023-01-21T12:08:28.642Z,19.35
2023-01-21T12:10:57.792Z,18.40
2023-01-21T12:14:04.037Z,17.45
2023-01-21T12:16:58.204Z,19.90
2023-01-21T12:19:51.413Z,21.40
2023-01-21T12:22:46.059Z,19.67
2023-01-21T12:25:26.487Z,22.73
2023-01-21T12:28:12.065Z,22.35
2023-01-21T12:31:11.958Z,19.98
2023-01-21T12:33:46.111Z,19.58
2023-01-21T12:36:33.186Z,20.27
2023-01-21T12:39:34.186Z,20.55
2023-01-21T12:42:09.852Z,20.10
2023-01-21T12:44:53.148Z,20.48
2023-01-21T12:47:27.960Z,21.77
2023-01-21T12:50:04.367Z,21.83
2023-01-21T12:52:54.380Z,27.63
2023-01-21T12:56:02.862Z,18.48
2023-01-21T12:58:38.299Z,20.02
2023-01-21T13:01:10.859Z,17.25
2023-01-21T13:04:03.932Z,19.30
2023-01-21T13:07:21.948Z,18.17
2023-01-21T13:10:08.302Z,17.17
2023-01-21T13:12:37.444Z,18.23
2023-01-21T13:15:28.406Z,19.25
2023-01-21T13:18:00.957Z,18.75
2023-01-21T13:20:32.255Z,19.45
2023-01-21T13:23:30.056Z,17.70
2023-01-21T13:26:11.999Z,17.10
2023-01-21T13:28:46.563Z,19.10
2023-01-21T13:31:25.444Z,18.83
2023-01-21T13:34:11.000Z,16.27
2023-01-21T13:37:02.496Z,18.23
2023-01-21T13:39:37.075Z,18.48
2023-01-21T13:42:22.503Z,21.08
2023-01-21T13:45:20.448Z,16.73
2023-01-21T13:48:16.716Z,17.27
2023-01-21T13:50:54.149Z,17.17
2023-01-21T13:53:51.230Z,17.17
2023-01-21T13:56:36.123Z,16.95
2023-01-21T13:59:36.061Z,16.77
2023-01-21T14:02:08.638Z,18.73
2023-01-21T14:04:45.824Z,17.50
2023-01-21T14:07:27.642Z,18.58
2023-01-21T14:10:10.599Z,19.45
2023-01-21T14:13:14.372Z,17.42
2023-01-21T14:16:00.616Z,17.67
2023-01-21T14:18:34.594Z,17.42
2023-01-21T14:21:10.342Z,20.15
2023-01-21T14:24:06.373Z,18.67
2023-01-21T14:27:08.833Z,16.65
2023-01-21T14:29:45.095Z,18.52
2023-01-21T14:32:30.388Z,20.33
2023-01-21T14:35:27.665Z,20.52
2023-01-21T14:38:24.049Z,21.08
2023-01-21T14:41:02.593Z,17.88
2023-01-21T14:43:32.661Z,16.65
2023-01-21T14:46:01.330Z,17.13
2023-01-21T14:48:35.539Z,18.63
2023-01-21T14:51:10.111Z,17.27
2023-01-21T14:53:52.548Z,18.80
2023-01-21T14:56:23.528Z,18.10
2023-01-21T14:58:54.217Z,17.60
2023-01-21T15:01:46.007Z,17.08
2023-01-21T15:04:30.732Z,15.43
2023-01-21T15:07:06.248Z,15.82
2023-01-21T15:09:37.259Z,16.20
2023-01-21T15:12:17.439Z,15.27
2023-01-21T15:14:45.999Z,15.82
2023-01-21T15:18:03.395Z,15.05
2023-01-21T15:20:42.739Z,15.00
2023-01-21T15:23:31.513Z,16.48
2023-01-21T15:26:13.148Z,14.95
2023-01-21T15:28:48.289Z,17.42
2023-01-21T15:31:21.819Z,15.90
2023-01-21T15:33:55.942Z,16.05
2023-01-21T15:36:24.839Z,15.98
2023-01-21T15:38:54.305Z,16.85
2023-01-21T15:41:56.589Z,16.15
2023-01-21T15:45:09.425Z,16.05
2023-01-21T15:48:08.815Z,16.55
2023-01-21T15:50:56.658Z,15.07
2023-01-21T15:53:33.260Z,16.30
2023-01-21T15:56:20.306Z,16.30
2023-01-21T15:59:02.586Z,17.17
2023-01-21T16:01:35.255Z,18.00
2023-01-21T16:04:30.880Z,20.38
2023-01-21T16:07:22.383Z,19.42
2023-01-21T16:10:14.891Z,18.38
2023-01-21T16:12:53.735Z,16.70
2023-01-21T16:15:40.845Z,17.13
2023-01-21T16:18:29.017Z,19.30
2023-01-21T16:20:58.113Z,16.02
2023-01-21T16:23:27.171Z,16.10
2023-01-21T16:25:54.844Z,16.67
2023-01-21T16:28:21.913Z,15.77
2023-01-21T16:30:57.577Z,15.68
2023-01-21T16:33:24.736Z,15.75
2023-01-21T16:35:56.418Z,15.75
2023-01-21T16:38:28.748Z,15.27
2023-01-21T16:41:08.375Z,16.42
2023-01-21T16:43:47.156Z,15.13
2023-01-21T16:46:22.580Z,14.90
2023-01-21T16:48:52.869Z,14.55
2023-01-21T16:51:23.773Z,14.48
2023-01-21T16:53:54.087Z,15.27
2023-01-21T16:56:29.776Z,14.98
2023-01-21T16:58:57.009Z,14.50
2023-01-21T17:01:27.561Z,13.75
2023-01-21T17:03:55.396Z,14.50
2023-01-21T17:06:31.018Z,15.32
2023-01-21T17:09:04.957Z,15.25
2023-01-21T17:11:33.619Z,15.68
2023-01-21T17:14:07.054Z,14.45
2023-01-21T17:16:38.899Z,16.65
2023-01-21T17:19:18.211Z,14.93
2023-01-21T17:21:47.291Z,13.40
2023-01-21T17:24:21.641Z,15.48
2023-01-21T17:26:56.265Z,14.20
2023-01-21T17:29:27.585Z,14.45
2023-01-21T17:32:01.193Z,14.18
2023-01-21T17:34:33.824Z,14.45
2023-01-21T17:37:01.025Z,14.55
2023-01-21T17:39:46.535Z,15.25
2023-01-21T17:42:22.001Z,14.45
2023-01-21T17:44:54.469Z,14.43
2023-01-21T17:47:31.984Z,14.45
2023-01-21T17:50:03.849Z,13.65
2023-01-21T17:52:31.193Z,15.13
2023-01-21T17:55:13.555Z,16.48
2023-01-21T17:57:40.336Z,16.88
2023-01-21T18:00:44.320Z,14.90
2023-01-21T18:03:12.605Z,13.95
2023-01-21T18:05:41.041Z,14.10
2023-01-21T18:08:16.217Z,13.52
2023-01-21T18:10:44.769Z,14.10
2023-01-21T18:13:17.398Z,14.43
2023-01-21T18:15:44.711Z,13.88
2023-01-21T18:18:21.226Z,14.20
2023-01-21T18:20:48.083Z,14.55
2023-01-21T18:23:18.233Z,13.43
2023-01-21T18:25:50.878Z,15.30
2023-01-21T18:28:23.974Z,15.70
2023-01-21T18:30:52.093Z,13.63
2023-01-21T18:33:18.914Z,14.48
2023-01-21T18:35:48.668Z,14.02
2023-01-21T18:38:27.428Z,16.60
2023-01-21T18:40:55.733Z,15.02
2023-01-21T18:43:23.785Z,14.02
2023-01-21T18:45:52.268Z,14.45
2023-01-21T18:48:29.968Z,14.55
2023-01-21T18:50:56.833Z,13.32
2023-01-21T18:53:23.684Z,12.82
2023-01-21T18:55:53.879Z,13.07
2023-01-21T18:58:21.056Z,13.18
2023-01-21T19:00:49.885Z,11.90
2023-01-21T19:03:17.101Z,12.38
2023-01-21T19:05:47.617Z,11.93
2023-01-21T19:08:18.179Z,11.90
2023-01-21T19:10:45.042Z,11.25
2023-01-21T19:13:12.087Z,12.75
2023-01-21T19:15:39.270Z,13.07
2023-01-21T19:18:14.345Z,11.73
2023-01-21T19:20:42.516Z,10.23
2023-01-21T19:23:15.522Z,11.63
2023-01-21T19:25:45.530Z,11.07
2023-01-21T19:28:13.636Z,12.02
2023-01-21T19:30:45.126Z,12.35
2023-01-21T19:33:12.811Z,14.82
2023-01-21T19:35:49.729Z,12.05
2023-01-21T19:38:18.791Z,11.18
2023-01-21T19:40:48.855Z,12.05
2023-01-21T19:43:17.608Z,13.07
2023-01-21T19:45:44.866Z,13.05
2023-01-21T19:48:17.553Z,13.07
2023-01-21T19:50:44.675Z,13.35
2023-01-21T19:53:15.331Z,11.20
2023-01-21T19:55:43.009Z,12.50
2023-01-21T19:58:22.218Z,11.20
2023-01-21T20:00:51.036Z,11.40
2023-01-21T20:03:19.947Z,11.38
2023-01-21T20:05:49.828Z,10.60
2023-01-21T20:08:20.734Z,11.02
2023-01-21T20:10:48.451Z,11.35
2023-01-21T20:13:15.946Z,11.00
2023-01-21T20:15:47.429Z,12.05
2023-01-21T20:18:24.424Z,11.02
2023-01-21T20:20:52.684Z,11.05
2023-01-21T20:23:20.854Z,12.18
2023-01-21T20:25:54.415Z,11.90
2023-01-21T20:28:23.228Z,12.48
2023-01-21T20:30:51.301Z,13.45
2023-01-21T20:33:23.461Z,11.98
2023-01-21T20:35:55.477Z,12.25
2023-01-21T20:38:31.647Z,15.35
2023-01-21T20:40:59.314Z,12.18
2023-01-21T20:43:26.575Z,12.80
2023-01-21T20:45:55.461Z,12.30
2023-01-21T20:48:42.853Z,12.52
2023-01-21T20:51:10.234Z,13.23
2023-01-21T20:53:37.953Z,13.02
2023-01-21T20:56:18.552Z,14.15
2023-01-21T20:58:47.852Z,14.52
2023-01-21T21:01:16.722Z,12.25
2023-01-21T21:03:43.707Z,13.70
2023-01-21T21:06:22.255Z,14.00
2023-01-21T21:08:49.903Z,13.73
2023-01-21T21:11:18.243Z,14.55
2023-01-21T21:13:48.152Z,13.57
2023-01-21T21:16:34.356Z,13.90
2023-01-21T21:19:01.382Z,14.02
2023-01-21T21:21:28.480Z,13.85
2023-01-21T21:23:55.286Z,15.18
2023-01-21T21:26:23.342Z,13.93
2023-01-21T21:28:51.655Z,14.60
2023-01-21T21:31:18.581Z,13.95
2023-01-21T21:33:45.981Z,15.38
2023-01-21T21:36:17.907Z,15.35
2023-01-21T21:38:45.514Z,14.13
2023-01-21T21:41:39.101Z,14.57
2023-01-21T21:44:06.872Z,13.98
2023-01-21T21:46:52.360Z,16.08
2023-01-21T21:49:19.235Z,13.68
2023-01-21T21:51:46.177Z,14.80
2023-01-21T21:54:14.343Z,14.45
2023-01-21T21:56:41.604Z,14.80
2023-01-21T21:59:08.536Z,14.02
2023-01-21T22:01:36.045Z,13.60
2023-01-21T22:04:04.449Z,14.60
2023-01-21T22:06:32.250Z,14.90
2023-01-21T22:08:59.816Z,14.25
2023-01-21T22:11:28.563Z,14.27
2023-01-21T22:13:56.688Z,14.10
2023-01-21T22:16:26.484Z,13.90
2023-01-21T22:18:54.459Z,13.55
2023-01-21T22:21:24.733Z,13.75
2023-01-21T22:23:52.273Z,13.85
2023-01-21T22:26:21.938Z,12.32
2023-01-21T22:28:51.249Z,12.85
2023-01-21T22:31:20.318Z,11.93
2023-01-21T22:33:47.440Z,12.02
2023-01-21T22:36:18.156Z,12.68
2023-01-21T22:38:45.585Z,12.82
2023-01-21T22:41:14.819Z,12.18
2023-01-21T22:43:44.906Z,12.70
2023-01-21T22:46:16.186Z,12.38
2023-01-21T22:48:43.032Z,12.30
2023-01-21T22:51:14.309Z,12.13
2023-01-21T22:53:41.195Z,12.60
2023-01-21T22:56:08.228Z,12.27
2023-01-21T22:58:35.492Z,11.23
2023-01-21T23:01:02.767Z,12.63
2023-01-21T23:03:29.702Z,12.27
2023-01-21T23:06:04.546Z,13.05
2023-01-21T23:08:31.436Z,11.30
2023-01-21T23:11:02.935Z,12.52
2023-01-21T23:13:31.463Z,11.77
2023-01-21T23:15:58.511Z,11.20
2023-01-21T23:18:27.626Z,11.65
2023-01-21T23:20:55.151Z,12.32
2023-01-21T23:23:22.039Z,11.73
2023-01-21T23:25:49.492Z,11.43
2023-01-21T23:28:17.718Z,11.57
2023-01-21T23:30:44.803Z,11.55
2023-01-21T23:33:12.170Z,12.40
2023-01-21T23:35:39.356Z,11.82
2023-01-21T23:38:06.216Z,11.45
2023-01-21T23:40:33.108Z,12.05
2023-01-21T23:43:00.011Z,11.93
2023-01-21T23:45:26.947Z,11.52
2023-01-21T23:47:54.910Z,11.48
2023-01-21T23:50:22.046Z,11.75
2023-01-21T23:52:48.867Z,12.13
2023-01-21T23:55:15.738Z,11.02
2023-01-21T23:57:42.512Z,11.00
